createdAt,value
2017-11-08T00:00:33.042Z,7.32
2017-11-08T00:01:36.517Z,7.32
2017-11-08T00:02:33.894Z,7.21
2017-11-08T00:03:34.133Z,7.25
2017-11-08T00:04:32.527Z,7.29
2017-11-08T00:05:32.425Z,7.32
2017-11-08T00:06:32.330Z,7.29
2017-11-08T00:07:32.861Z,7.17
2017-11-08T00:08:35.154Z,7.36
2017-11-08T00:09:32.265Z,7.33
2017-11-08T00:10:33.886Z,7.31
2017-11-08T00:11:32.526Z,7.32
2017-11-08T00:12:32.825Z,7.28
2017-11-08T00:13:34.735Z,7.32
2017-11-08T00:14:31.661Z,7.33
2017-11-08T00:15:35.255Z,7.31
2017-11-08T00:16:31.734Z,7.29
2017-11-08T00:17:35.165Z,7.35
2017-11-08T00:18:35.365Z,7.31
2017-11-08T00:19:31.286Z,7.32
2017-11-08T00:20:31.168Z,7.29
2017-11-08T00:21:31.144Z,7.32
2017-11-08T00:22:31.121Z,7.29
2017-11-08T00:23:31.065Z,7.33
2017-11-08T00:24:31.063Z,7.25
2017-11-08T00:25:30.779Z,7.33
2017-11-08T00:26:30.786Z,7.29
2017-11-08T00:27:30.601Z,7.31
2017-11-08T00:28:30.683Z,7.24
2017-11-08T00:29:30.440Z,7.33
2017-11-08T00:30:30.497Z,7.31
2017-11-08T00:31:33.709Z,7.29
2017-11-08T00:32:30.293Z,7.23
2017-11-08T00:33:30.125Z,7.21
2017-11-08T00:34:30.114Z,7.23
2017-11-08T00:35:29.950Z,7.18
2017-11-08T00:36:29.865Z,7.15
2017-11-08T00:37:29.812Z,7.25
2017-11-08T00:38:29.859Z,7.29
2017-11-08T00:39:32.162Z,7.29
2017-11-08T00:40:29.649Z,7.29
2017-11-08T00:41:29.491Z,7.29
2017-11-08T00:42:29.385Z,7.31
2017-11-08T00:43:29.935Z,7.33
2017-11-08T00:44:29.292Z,7.28
2017-11-08T00:45:29.230Z,7.17
2017-11-08T00:46:29.605Z,7.18
2017-11-08T00:47:29.029Z,7.18
2017-11-08T00:48:30.714Z,7.15
2017-11-08T00:49:28.850Z,7.14
2017-11-08T00:50:28.765Z,7.23
2017-11-08T00:51:28.699Z,7.17
2017-11-08T00:52:28.966Z,7.20
2017-11-08T00:53:28.496Z,7.21
2017-11-08T00:54:28.682Z,7.23
2017-11-08T00:55:28.337Z,7.31
2017-11-08T00:56:28.746Z,7.31
2017-11-08T00:57:31.157Z,7.29
2017-11-08T00:58:28.077Z,7.29
2017-11-08T00:59:28.043Z,7.23
2017-11-08T01:00:29.637Z,7.17
2017-11-08T01:01:27.965Z,7.21
2017-11-08T01:02:28.398Z,7.20
2017-11-08T01:03:27.669Z,7.23
2017-11-08T01:04:27.591Z,7.13
2017-11-08T01:05:27.507Z,7.15
2017-11-08T01:06:27.427Z,7.13
2017-11-08T01:07:27.342Z,7.14
2017-11-08T01:08:27.262Z,7.10
2017-11-08T01:09:27.190Z,7.20
2017-11-08T01:10:27.101Z,7.05
2017-11-08T01:11:27.018Z,7.11
2017-11-08T01:12:26.937Z,7.10
2017-11-08T01:13:26.856Z,7.15
2017-11-08T01:14:29.640Z,7.10
2017-11-08T01:15:28.630Z,7.03
2017-11-08T01:16:28.121Z,7.06
2017-11-08T01:17:26.532Z,7.05
2017-11-08T01:18:26.450Z,7.05
2017-11-08T01:19:26.368Z,7.06
2017-11-08T01:20:28.121Z,7.06
2017-11-08T01:21:26.205Z,7.10
2017-11-08T01:22:26.123Z,7.03
2017-11-08T01:23:26.792Z,7.00
2017-11-08T01:24:25.959Z,7.07
2017-11-08T01:25:25.881Z,7.20
2017-11-08T01:26:25.797Z,7.20
2017-11-08T01:27:25.717Z,7.18
2017-11-08T01:28:25.633Z,7.23
2017-11-08T01:29:26.090Z,7.24
2017-11-08T01:30:25.477Z,7.21
2017-11-08T01:31:25.389Z,7.32
2017-11-08T01:32:25.313Z,7.32
2017-11-08T01:33:25.226Z,7.29
2017-11-08T01:34:25.148Z,7.31
2017-11-08T01:35:25.063Z,7.42
2017-11-08T01:36:24.982Z,7.38
2017-11-08T01:37:24.903Z,7.31
2017-11-08T01:38:24.827Z,7.38
2017-11-08T01:39:24.738Z,7.42
2017-11-08T01:40:24.657Z,7.43
2017-11-08T01:41:24.578Z,7.47
2017-11-08T01:42:24.495Z,7.56
2017-11-08T01:43:24.412Z,7.47
2017-11-08T01:44:24.332Z,7.48
2017-11-08T01:45:24.271Z,7.50
2017-11-08T01:46:24.170Z,7.56
2017-11-08T01:47:24.089Z,7.48
2017-11-08T01:48:24.007Z,7.50
2017-11-08T01:49:23.928Z,7.51
2017-11-08T01:50:23.843Z,7.56
2017-11-08T01:51:23.764Z,7.56
2017-11-08T01:52:23.682Z,7.50
2017-11-08T01:53:23.600Z,7.56
2017-11-08T01:54:23.520Z,7.56
2017-11-08T01:55:23.441Z,7.63
2017-11-08T01:56:23.359Z,7.67
2017-11-08T01:57:23.287Z,7.66
2017-11-08T01:58:23.209Z,7.56
2017-11-08T01:59:23.113Z,7.66
2017-11-08T02:00:23.032Z,7.63
2017-11-08T02:01:22.951Z,7.75
2017-11-08T02:02:22.872Z,7.75
2017-11-08T02:03:22.790Z,7.67
2017-11-08T02:04:22.715Z,7.67
2017-11-08T02:05:22.637Z,7.72
2017-11-08T02:06:23.253Z,7.70
2017-11-08T02:07:22.463Z,7.70
2017-11-08T02:08:22.384Z,7.75
2017-11-08T02:09:22.303Z,7.67
2017-11-08T02:10:22.222Z,7.77
2017-11-08T02:11:22.140Z,7.63
2017-11-08T02:12:22.060Z,7.72
2017-11-08T02:13:21.978Z,7.76
2017-11-08T02:14:21.900Z,7.75
2017-11-08T02:15:21.818Z,7.76
2017-11-08T02:16:21.736Z,7.75
2017-11-08T02:17:21.654Z,7.67
2017-11-08T02:18:21.573Z,7.72
2017-11-08T02:19:21.493Z,7.75
2017-11-08T02:20:21.409Z,7.75
2017-11-08T02:21:21.332Z,7.80
2017-11-08T02:22:21.253Z,7.80
2017-11-08T02:23:21.177Z,7.82
2017-11-08T02:24:21.086Z,7.79
2017-11-08T02:25:21.007Z,7.72
2017-11-08T02:26:20.925Z,7.80
2017-11-08T02:27:20.846Z,7.83
2017-11-08T02:28:20.764Z,7.77
2017-11-08T02:29:20.685Z,7.80
2017-11-08T02:30:20.603Z,7.83
2017-11-08T02:31:20.518Z,7.82
2017-11-08T02:32:20.439Z,7.91
2017-11-08T02:33:20.358Z,7.77
2017-11-08T02:34:20.277Z,7.79
2017-11-08T02:35:20.194Z,7.77
2017-11-08T02:36:20.116Z,7.91
2017-11-08T02:37:20.040Z,7.80
2017-11-08T02:38:19.954Z,7.85
2017-11-08T02:39:19.871Z,7.82
2017-11-08T02:40:19.791Z,7.90
2017-11-08T02:41:19.716Z,7.88
2017-11-08T02:42:20.602Z,7.93
2017-11-08T02:43:19.549Z,7.85
2017-11-08T02:44:19.469Z,7.85
2017-11-08T02:45:19.390Z,7.82
2017-11-08T02:46:19.306Z,7.95
2017-11-08T02:47:19.225Z,7.88
2017-11-08T02:48:19.144Z,7.93
2017-11-08T02:49:19.064Z,7.95
2017-11-08T02:50:18.983Z,8.00
2017-11-08T02:51:18.902Z,7.91
2017-11-08T02:52:18.820Z,7.95
2017-11-08T02:53:18.738Z,7.91
2017-11-08T02:54:18.661Z,7.90
2017-11-08T02:55:18.578Z,7.97
2017-11-08T02:56:18.497Z,7.94
2017-11-08T02:57:18.417Z,7.91
2017-11-08T02:58:18.336Z,7.90
2017-11-08T02:59:18.253Z,7.95
2017-11-08T03:00:18.173Z,7.93
2017-11-08T03:01:18.102Z,7.93
2017-11-08T03:02:18.016Z,7.93
2017-11-08T03:03:17.931Z,7.91
2017-11-08T03:04:17.854Z,7.91
2017-11-08T03:05:17.768Z,7.95
2017-11-08T03:06:17.687Z,7.93
2017-11-08T03:07:17.606Z,7.93
2017-11-08T03:08:17.527Z,7.95
2017-11-08T03:09:17.454Z,7.95
2017-11-08T03:10:17.710Z,7.91
2017-11-08T03:11:17.284Z,7.95
2017-11-08T03:12:18.775Z,7.98
2017-11-08T03:13:17.123Z,7.95
2017-11-08T03:14:17.042Z,8.00
2017-11-08T03:15:16.961Z,7.87
2017-11-08T03:16:16.894Z,7.90
2017-11-08T03:17:16.798Z,7.93
2017-11-08T03:18:16.722Z,7.93
2017-11-08T03:19:16.638Z,7.90
2017-11-08T03:20:16.558Z,7.90
2017-11-08T03:21:16.474Z,7.95
2017-11-08T03:22:16.394Z,7.97
2017-11-08T03:23:16.313Z,7.93
2017-11-08T03:24:16.231Z,7.93
2017-11-08T03:25:16.154Z,7.94
2017-11-08T03:26:16.071Z,8.00
2017-11-08T03:27:15.988Z,8.01
2017-11-08T03:28:15.909Z,7.98
2017-11-08T03:29:15.832Z,7.97
2017-11-08T03:30:15.752Z,7.91
2017-11-08T03:31:15.831Z,7.94
2017-11-08T03:32:15.748Z,8.00
2017-11-08T03:33:15.507Z,8.01
2017-11-08T03:34:15.425Z,7.97
2017-11-08T03:35:15.655Z,8.01
2017-11-08T03:36:15.341Z,8.01
2017-11-08T03:37:15.225Z,7.95
2017-11-08T03:38:15.110Z,7.95
2017-11-08T03:39:15.024Z,7.98
2017-11-08T03:40:14.941Z,7.94
2017-11-08T03:41:15.572Z,7.97
2017-11-08T03:42:14.805Z,7.98
2017-11-08T03:43:15.009Z,7.88
2017-11-08T03:44:14.618Z,7.94
2017-11-08T03:45:14.544Z,7.83
2017-11-08T03:46:14.850Z,7.94
2017-11-08T03:47:14.701Z,7.83
2017-11-08T03:48:14.774Z,7.82
2017-11-08T03:49:14.759Z,7.85
2017-11-08T03:50:14.217Z,7.90
2017-11-08T03:51:14.056Z,7.83
2017-11-08T03:52:13.971Z,7.83
2017-11-08T03:53:13.890Z,7.88
2017-11-08T03:54:13.842Z,7.80
2017-11-08T03:55:16.670Z,7.80
2017-11-08T03:56:13.815Z,7.79
2017-11-08T03:57:13.807Z,7.79
2017-11-08T03:58:13.545Z,7.83
2017-11-08T03:59:13.704Z,7.76
2017-11-08T04:00:13.534Z,7.82
2017-11-08T04:01:13.245Z,7.82
2017-11-08T04:02:14.286Z,7.82
2017-11-08T04:03:13.143Z,7.85
2017-11-08T04:04:13.008Z,7.79
2017-11-08T04:05:13.073Z,7.85
2017-11-08T04:06:12.845Z,7.80
2017-11-08T04:07:13.193Z,7.79
2017-11-08T04:08:12.708Z,7.70
2017-11-08T04:09:12.708Z,7.73
2017-11-08T04:10:12.549Z,7.69
2017-11-08T04:11:14.132Z,7.72
2017-11-08T04:12:12.505Z,7.70
2017-11-08T04:13:12.273Z,7.72
2017-11-08T04:14:12.187Z,7.72
2017-11-08T04:15:12.431Z,7.72
2017-11-08T04:16:12.265Z,7.79
2017-11-08T04:17:12.138Z,7.63
2017-11-08T04:18:12.087Z,7.72
2017-11-08T04:19:11.812Z,7.72
2017-11-08T04:20:11.784Z,7.70
2017-11-08T04:21:12.127Z,7.75
2017-11-08T04:22:13.354Z,7.75
2017-11-08T04:23:13.951Z,7.75
2017-11-08T04:24:12.152Z,7.75
2017-11-08T04:25:11.365Z,7.73
2017-11-08T04:26:11.379Z,7.70
2017-11-08T04:27:11.660Z,7.70
2017-11-08T04:28:11.082Z,7.70
2017-11-08T04:29:10.977Z,7.75
2017-11-08T04:30:10.991Z,7.75
2017-11-08T04:31:10.898Z,7.75
2017-11-08T04:32:10.923Z,7.73
2017-11-08T04:33:10.664Z,7.73
2017-11-08T04:34:10.978Z,7.76
2017-11-08T04:35:10.545Z,7.67
2017-11-08T04:36:10.519Z,7.67
2017-11-08T04:37:10.422Z,7.72
2017-11-08T04:38:10.533Z,7.73
2017-11-08T04:39:10.205Z,7.72
2017-11-08T04:40:10.138Z,7.72
2017-11-08T04:41:09.999Z,7.70
2017-11-08T04:42:10.597Z,7.66
2017-11-08T04:43:10.039Z,7.54
2017-11-08T04:44:09.757Z,7.66
2017-11-08T04:45:10.385Z,7.67
2017-11-08T04:46:09.730Z,7.56
2017-11-08T04:47:09.899Z,7.56
2017-11-08T04:48:09.436Z,7.54
2017-11-08T04:49:09.588Z,7.51
2017-11-08T04:50:09.517Z,7.54
2017-11-08T04:51:09.302Z,7.50
2017-11-08T04:52:09.440Z,7.48
2017-11-08T04:53:09.668Z,7.51
2017-11-08T04:54:08.987Z,7.60
2017-11-08T04:55:08.876Z,7.48
2017-11-08T04:56:09.352Z,7.51
2017-11-08T04:57:09.209Z,7.56
2017-11-08T04:58:09.951Z,7.47
2017-11-08T04:59:09.567Z,7.47
2017-11-08T05:00:10.108Z,7.51
2017-11-08T05:01:08.381Z,7.48
2017-11-08T05:02:10.769Z,7.48
2017-11-08T05:03:08.526Z,7.53
2017-11-08T05:04:08.387Z,7.54
2017-11-08T05:05:08.852Z,7.56
2017-11-08T05:06:07.980Z,7.56
2017-11-08T05:07:07.923Z,7.48
2017-11-08T05:08:08.250Z,7.51
2017-11-08T05:09:08.210Z,7.54
2017-11-08T05:10:08.000Z,7.66
2017-11-08T05:11:07.958Z,7.54
2017-11-08T05:12:08.436Z,7.57
2017-11-08T05:13:08.418Z,7.58
2017-11-08T05:14:08.422Z,7.53
2017-11-08T05:15:08.018Z,7.63
2017-11-08T05:16:08.030Z,7.54
2017-11-08T05:17:07.088Z,7.57
2017-11-08T05:18:07.117Z,7.43
2017-11-08T05:19:06.972Z,7.48
2017-11-08T05:20:07.370Z,7.43
2017-11-08T05:21:06.935Z,7.50
2017-11-08T05:22:06.854Z,7.48
2017-11-08T05:23:07.058Z,7.50
2017-11-08T05:24:06.879Z,7.39
2017-11-08T05:25:08.617Z,7.42
2017-11-08T05:26:06.661Z,7.40
2017-11-08T05:27:10.894Z,7.35
2017-11-08T05:28:06.588Z,7.38
2017-11-08T05:29:06.649Z,7.42
2017-11-08T05:30:06.042Z,7.40
2017-11-08T05:31:07.009Z,7.43
2017-11-08T05:32:07.284Z,7.33
2017-11-08T05:33:05.854Z,7.38
2017-11-08T05:34:06.514Z,7.35
2017-11-08T05:35:07.028Z,7.31
2017-11-08T05:36:06.934Z,7.24
2017-11-08T05:37:07.614Z,7.29
2017-11-08T05:38:07.445Z,7.20
2017-11-08T05:39:06.543Z,7.31
2017-11-08T05:40:08.466Z,7.33
2017-11-08T05:41:05.839Z,7.32
2017-11-08T05:42:06.081Z,7.20
2017-11-08T05:43:05.546Z,7.28
2017-11-08T05:44:06.196Z,7.32
2017-11-08T05:45:05.733Z,7.28
2017-11-08T05:46:04.861Z,7.31
2017-11-08T05:47:05.407Z,7.33
2017-11-08T05:48:06.159Z,7.25
2017-11-08T05:49:04.575Z,7.29
2017-11-08T05:50:04.934Z,7.29
2017-11-08T05:51:04.651Z,7.25
2017-11-08T05:52:04.306Z,7.31
2017-11-08T05:53:04.529Z,7.24
2017-11-08T05:54:04.656Z,7.31
2017-11-08T05:55:04.011Z,7.32
2017-11-08T05:56:04.050Z,7.40
2017-11-08T05:57:07.059Z,7.29
2017-11-08T05:58:03.830Z,7.36
2017-11-08T05:59:03.676Z,7.32
2017-11-08T06:00:04.023Z,7.32
2017-11-08T06:01:04.153Z,7.31
2017-11-08T06:02:03.983Z,7.29
2017-11-08T06:03:03.531Z,7.23
2017-11-08T06:04:03.374Z,7.42
2017-11-08T06:05:03.239Z,7.39
2017-11-08T06:06:03.213Z,7.32
2017-11-08T06:07:03.865Z,7.24
2017-11-08T06:08:05.700Z,7.31
2017-11-08T06:09:02.965Z,7.28
2017-11-08T06:10:04.856Z,7.35
2017-11-08T06:11:02.971Z,7.36
2017-11-08T06:12:07.214Z,7.36
2017-11-08T06:13:03.783Z,7.39
2017-11-08T06:14:07.265Z,7.36
2017-11-08T06:15:02.370Z,7.35
2017-11-08T06:16:02.714Z,7.38
2017-11-08T06:17:03.495Z,7.42
2017-11-08T06:18:02.201Z,7.36
2017-11-08T06:19:03.539Z,7.39
2017-11-08T06:20:04.026Z,7.39
2017-11-08T06:21:04.415Z,7.36
2017-11-08T06:22:02.730Z,7.33
2017-11-08T06:23:01.722Z,7.38
2017-11-08T06:24:01.913Z,7.36
2017-11-08T06:25:01.590Z,7.42
2017-11-08T06:26:01.537Z,7.42
2017-11-08T06:27:01.493Z,7.39
2017-11-08T06:28:01.499Z,7.47
2017-11-08T06:29:01.279Z,7.47
2017-11-08T06:30:01.266Z,7.47
2017-11-08T06:31:01.075Z,7.47
2017-11-08T06:32:01.021Z,7.48
2017-11-08T06:33:00.897Z,7.50
2017-11-08T06:34:04.329Z,7.50
2017-11-08T06:35:01.071Z,7.48
2017-11-08T06:36:01.415Z,7.51
2017-11-08T06:37:00.588Z,7.53
2017-11-08T06:38:00.667Z,7.56
2017-11-08T06:39:00.415Z,7.53
2017-11-08T06:40:01.171Z,7.53
2017-11-08T06:41:00.269Z,7.54
2017-11-08T06:42:00.176Z,7.57
2017-11-08T06:43:00.193Z,7.63
2017-11-08T06:44:00.008Z,7.51
2017-11-08T06:45:00.163Z,7.57
2017-11-08T06:45:59.870Z,7.63
2017-11-08T06:47:01.703Z,7.63
2017-11-08T06:48:00.922Z,7.61
2017-11-08T06:48:59.600Z,7.63
2017-11-08T06:50:02.243Z,7.66
2017-11-08T06:51:02.205Z,7.58
2017-11-08T06:51:59.364Z,7.56
2017-11-08T06:52:59.409Z,7.60
2017-11-08T06:53:59.376Z,7.61
2017-11-08T06:54:59.110Z,7.66
2017-11-08T06:55:59.131Z,7.63
2017-11-08T06:56:58.955Z,7.54
2017-11-08T06:57:58.866Z,7.58
2017-11-08T06:58:58.991Z,7.56
2017-11-08T06:59:58.773Z,7.56
2017-11-08T07:00:58.623Z,7.57
2017-11-08T07:01:58.750Z,7.57
2017-11-08T07:02:58.479Z,7.54
2017-11-08T07:04:01.258Z,7.53
2017-11-08T07:04:58.689Z,7.57
2017-11-08T07:05:58.450Z,7.60
2017-11-08T07:06:58.146Z,7.56
2017-11-08T07:07:58.069Z,7.56
2017-11-08T07:08:57.976Z,7.56
2017-11-08T07:09:57.896Z,7.60
2017-11-08T07:10:57.811Z,7.60
2017-11-08T07:11:57.836Z,7.58
2017-11-08T07:12:57.662Z,7.63
2017-11-08T07:13:59.341Z,7.66
2017-11-08T07:14:57.508Z,7.58
2017-11-08T07:15:57.473Z,7.57
2017-11-08T07:16:57.327Z,7.58
2017-11-08T07:17:57.243Z,7.58
2017-11-08T07:18:57.162Z,7.66
2017-11-08T07:19:57.082Z,7.70
2017-11-08T07:20:57.001Z,7.66
2017-11-08T07:21:56.920Z,7.76
2017-11-08T07:22:57.050Z,7.76
2017-11-08T07:23:57.751Z,7.79
2017-11-08T07:24:56.678Z,7.72
2017-11-08T07:25:56.595Z,7.70
2017-11-08T07:26:56.514Z,7.69
2017-11-08T07:27:56.433Z,7.80
2017-11-08T07:28:56.869Z,7.85
2017-11-08T07:29:56.271Z,7.82
2017-11-08T07:30:56.196Z,7.83
2017-11-08T07:31:56.110Z,7.85
2017-11-08T07:32:56.028Z,7.91
2017-11-08T07:33:55.948Z,7.95
2017-11-08T07:34:55.866Z,7.97
2017-11-08T07:35:55.790Z,8.01
2017-11-08T07:36:55.704Z,8.08
2017-11-08T07:37:55.625Z,8.10
2017-11-08T07:38:55.543Z,8.10
2017-11-08T07:39:55.472Z,8.10
2017-11-08T07:40:55.384Z,8.13
2017-11-08T07:41:55.300Z,8.15
2017-11-08T07:42:55.220Z,8.20
2017-11-08T07:43:55.139Z,8.23
2017-11-08T07:44:55.058Z,8.23
2017-11-08T07:45:54.982Z,8.30
2017-11-08T07:46:54.897Z,8.26
2017-11-08T07:47:54.817Z,8.28
2017-11-08T07:48:54.737Z,8.36
2017-11-08T07:49:54.658Z,8.33
2017-11-08T07:50:54.574Z,8.36
2017-11-08T07:51:54.494Z,8.31
2017-11-08T07:52:54.415Z,8.27
2017-11-08T07:53:54.333Z,8.31
2017-11-08T07:54:54.252Z,8.30
2017-11-08T07:55:54.173Z,8.27
2017-11-08T07:56:54.094Z,8.31
2017-11-08T07:57:54.011Z,8.30
2017-11-08T07:58:53.932Z,8.36
2017-11-08T07:59:53.852Z,8.36
2017-11-08T08:00:53.770Z,8.38
2017-11-08T08:01:53.693Z,8.36
2017-11-08T08:02:53.610Z,8.33
2017-11-08T08:03:53.537Z,8.38
2017-11-08T08:04:53.448Z,8.33
2017-11-08T08:05:53.378Z,8.41
2017-11-08T08:06:53.288Z,8.37
2017-11-08T08:07:53.208Z,8.30
2017-11-08T08:08:53.127Z,8.36
2017-11-08T08:09:53.051Z,8.41
2017-11-08T08:10:52.965Z,8.34
2017-11-08T08:11:52.887Z,8.31
2017-11-08T08:12:52.808Z,8.30
2017-11-08T08:13:52.737Z,8.37
2017-11-08T08:14:52.645Z,8.30
2017-11-08T08:15:52.565Z,8.31
2017-11-08T08:16:52.484Z,8.36
2017-11-08T08:17:52.410Z,8.37
2017-11-08T08:18:52.322Z,8.34
2017-11-08T08:19:52.243Z,8.28
2017-11-08T08:20:52.163Z,8.41
2017-11-08T08:21:52.084Z,8.36
2017-11-08T08:22:52.000Z,8.33
2017-11-08T08:23:51.921Z,8.34
2017-11-08T08:24:51.842Z,8.34
2017-11-08T08:25:51.761Z,8.37
2017-11-08T08:26:51.686Z,8.34
2017-11-08T08:27:51.599Z,8.38
2017-11-08T08:28:51.522Z,8.38
2017-11-08T08:29:51.445Z,8.41
2017-11-08T08:30:51.358Z,8.44
2017-11-08T08:31:51.283Z,8.45
2017-11-08T08:32:51.197Z,8.46
2017-11-08T08:33:51.124Z,8.44
2017-11-08T08:34:51.037Z,8.49
2017-11-08T08:35:50.957Z,8.46
2017-11-08T08:36:50.877Z,8.45
2017-11-08T08:37:50.795Z,8.46
2017-11-08T08:38:50.716Z,8.48
2017-11-08T08:39:50.642Z,8.53
2017-11-08T08:40:50.556Z,8.55
2017-11-08T08:41:50.474Z,8.61
2017-11-08T08:42:50.393Z,8.52
2017-11-08T08:43:50.313Z,8.53
2017-11-08T08:44:50.235Z,8.53
2017-11-08T08:45:50.154Z,8.66
2017-11-08T08:46:50.077Z,8.60
2017-11-08T08:47:49.995Z,8.56
2017-11-08T08:48:49.918Z,8.61
2017-11-08T08:49:49.834Z,8.67
2017-11-08T08:50:49.831Z,8.66
2017-11-08T08:51:49.673Z,8.69
2017-11-08T08:52:49.592Z,8.67
2017-11-08T08:53:49.512Z,8.71
2017-11-08T08:54:49.432Z,8.78
2017-11-08T08:55:49.352Z,8.71
2017-11-08T08:56:49.272Z,8.81
2017-11-08T08:57:49.194Z,8.84
2017-11-08T08:58:49.111Z,8.78
2017-11-08T08:59:49.033Z,8.74
2017-11-08T09:00:48.952Z,8.89
2017-11-08T09:01:48.871Z,8.97
2017-11-08T09:02:48.792Z,8.92
2017-11-08T09:03:48.712Z,8.92
2017-11-08T09:04:48.634Z,8.99
2017-11-08T09:05:48.550Z,8.97
2017-11-08T09:06:48.470Z,9.02
2017-11-08T09:07:48.390Z,9.04
2017-11-08T09:08:48.316Z,9.08
2017-11-08T09:09:48.231Z,9.06
2017-11-08T09:10:48.152Z,9.04
2017-11-08T09:11:48.072Z,9.06
2017-11-08T09:12:47.995Z,9.06
2017-11-08T09:13:47.911Z,9.08
2017-11-08T09:14:47.831Z,9.13
2017-11-08T09:15:47.751Z,9.02
2017-11-08T09:16:47.676Z,9.08
2017-11-08T09:17:47.594Z,9.16
2017-11-08T09:18:47.513Z,9.19
2017-11-08T09:19:47.432Z,9.13
2017-11-08T09:20:47.353Z,9.16
2017-11-08T09:21:47.274Z,9.04
2017-11-08T09:22:47.198Z,9.06
2017-11-08T09:23:47.115Z,9.04
2017-11-08T09:24:47.039Z,8.99
2017-11-08T09:25:47.312Z,9.06
2017-11-08T09:26:46.875Z,9.06
2017-11-08T09:27:46.798Z,9.03
2017-11-08T09:28:46.716Z,9.11
2017-11-08T09:29:46.639Z,9.11
2017-11-08T09:30:46.555Z,9.03
2017-11-08T09:31:46.476Z,9.00
2017-11-08T09:32:46.397Z,8.97
2017-11-08T09:33:46.318Z,9.06
2017-11-08T09:34:46.241Z,9.00
2017-11-08T09:35:46.157Z,9.16
2017-11-08T09:36:46.084Z,9.10
2017-11-08T09:37:46.001Z,9.14
2017-11-08T09:38:45.921Z,9.18
2017-11-08T09:39:45.838Z,9.26
2017-11-08T09:40:45.762Z,9.31
2017-11-08T09:41:45.681Z,9.39
2017-11-08T09:42:45.601Z,9.29
2017-11-08T09:43:45.522Z,9.47
2017-11-08T09:44:45.441Z,9.51
2017-11-08T09:45:45.644Z,9.51
2017-11-08T09:46:45.399Z,9.62
2017-11-08T09:47:45.281Z,9.64
2017-11-08T09:48:45.153Z,9.64
2017-11-08T09:49:45.048Z,9.62
2017-11-08T09:50:45.111Z,9.64
2017-11-08T09:51:45.093Z,9.66
2017-11-08T09:52:44.810Z,9.66
2017-11-08T09:53:44.729Z,9.61
2017-11-08T09:54:44.762Z,9.66
2017-11-08T09:55:44.591Z,9.66
2017-11-08T09:56:45.152Z,9.73
2017-11-08T09:57:44.704Z,9.73
2017-11-08T09:58:45.074Z,9.84
2017-11-08T09:59:44.364Z,9.83
2017-11-08T10:00:44.176Z,9.92
2017-11-08T10:01:44.597Z,9.91
2017-11-08T10:02:44.149Z,9.87
2017-11-08T10:03:43.948Z,9.92
2017-11-08T10:04:43.926Z,10.02
2017-11-08T10:05:44.056Z,9.97
2017-11-08T10:06:44.216Z,9.98
2017-11-08T10:07:43.723Z,10.02
2017-11-08T10:08:43.583Z,10.17
2017-11-08T10:09:43.468Z,10.23
2017-11-08T10:10:43.427Z,10.31
2017-11-08T10:11:43.683Z,10.33
2017-11-08T10:12:43.303Z,10.46
2017-11-08T10:13:43.254Z,10.40
2017-11-08T10:14:43.119Z,10.37
2017-11-08T10:15:43.163Z,10.41
2017-11-08T10:16:43.059Z,10.41
2017-11-08T10:17:43.279Z,10.42
2017-11-08T10:18:42.805Z,10.40
2017-11-08T10:19:42.740Z,10.34
2017-11-08T10:20:42.619Z,10.44
2017-11-08T10:21:42.536Z,10.33
2017-11-08T10:22:43.049Z,10.26
2017-11-08T10:23:42.408Z,10.35
2017-11-08T10:24:42.305Z,10.23
2017-11-08T10:25:42.507Z,10.31
2017-11-08T10:26:42.149Z,10.23
2017-11-08T10:27:42.208Z,10.20
2017-11-08T10:28:42.596Z,10.23
2017-11-08T10:29:42.224Z,10.34
2017-11-08T10:30:41.858Z,10.31
2017-11-08T10:31:41.735Z,10.34
2017-11-08T10:32:42.504Z,10.41
2017-11-08T10:33:41.585Z,10.54
2017-11-08T10:34:42.020Z,10.72
2017-11-08T10:35:41.443Z,10.69
2017-11-08T10:36:41.360Z,10.61
2017-11-08T10:37:41.310Z,10.61
2017-11-08T10:38:41.184Z,10.72
2017-11-08T10:39:41.142Z,10.56
2017-11-08T10:40:41.434Z,10.57
2017-11-08T10:41:40.968Z,10.60
2017-11-08T10:42:40.842Z,10.60
2017-11-08T10:43:40.775Z,10.57
2017-11-08T10:44:40.767Z,10.57
2017-11-08T10:45:42.235Z,10.57
2017-11-08T10:46:43.257Z,10.59
2017-11-08T10:47:40.467Z,10.60
2017-11-08T10:48:40.452Z,10.57
2017-11-08T10:49:40.293Z,10.54
2017-11-08T10:50:40.269Z,10.51
2017-11-08T10:51:40.198Z,10.53
2017-11-08T10:52:40.218Z,10.54
2017-11-08T10:53:40.101Z,10.49
2017-11-08T10:54:40.041Z,10.48
2017-11-08T10:55:40.021Z,10.44
2017-11-08T10:56:40.431Z,10.46
2017-11-08T10:57:39.911Z,10.46
2017-11-08T10:58:39.843Z,10.42
2017-11-08T10:59:40.016Z,10.54
2017-11-08T11:00:39.697Z,10.59
2017-11-08T11:01:39.845Z,10.53
2017-11-08T11:02:39.332Z,10.56
2017-11-08T11:03:39.567Z,10.57
2017-11-08T11:04:39.436Z,10.51
2017-11-08T11:05:42.489Z,10.57
2017-11-08T11:06:39.029Z,10.60
2017-11-08T11:07:39.707Z,10.63
2017-11-08T11:08:38.803Z,10.71
2017-11-08T11:09:38.780Z,10.68
2017-11-08T11:10:39.684Z,10.67
2017-11-08T11:11:39.247Z,10.64
2017-11-08T11:12:38.776Z,10.75
2017-11-08T11:13:38.789Z,10.64
2017-11-08T11:14:38.896Z,10.63
2017-11-08T11:15:38.915Z,10.67
2017-11-08T11:16:39.092Z,10.68
2017-11-08T11:17:40.307Z,10.69
2017-11-08T11:18:42.193Z,10.67
2017-11-08T11:19:39.486Z,10.63
2017-11-08T11:20:38.805Z,10.72
2017-11-08T11:21:38.437Z,10.75
2017-11-08T11:22:38.944Z,10.72
2017-11-08T11:23:38.455Z,10.84
2017-11-08T11:24:37.661Z,10.87
2017-11-08T11:25:40.093Z,10.79
2017-11-08T11:26:37.416Z,10.89
2017-11-08T11:27:39.185Z,10.89
2017-11-08T11:28:37.263Z,10.82
2017-11-08T11:29:37.267Z,10.82
2017-11-08T11:30:38.114Z,10.87
2017-11-08T11:31:37.781Z,10.81
2017-11-08T11:32:37.959Z,10.89
2017-11-08T11:33:38.287Z,10.82
2017-11-08T11:34:38.085Z,10.82
2017-11-08T11:35:37.148Z,10.79
2017-11-08T11:36:39.256Z,10.79
2017-11-08T11:37:37.915Z,10.74
2017-11-08T11:38:38.467Z,10.76
2017-11-08T11:39:37.387Z,10.71
2017-11-08T11:40:36.923Z,10.68
2017-11-08T11:41:36.962Z,10.68
2017-11-08T11:42:36.160Z,10.68
2017-11-08T11:43:36.590Z,10.63
2017-11-08T11:44:36.030Z,10.63
2017-11-08T11:45:35.934Z,10.64
2017-11-08T11:46:36.011Z,10.63
2017-11-08T11:47:35.953Z,10.67
2017-11-08T11:48:37.253Z,10.72
2017-11-08T11:49:36.578Z,10.63
2017-11-08T11:50:36.976Z,10.67
2017-11-08T11:51:35.893Z,10.68
2017-11-08T11:52:36.008Z,10.67
2017-11-08T11:53:38.914Z,10.69
2017-11-08T11:54:35.401Z,10.69
2017-11-08T11:55:35.594Z,10.74
2017-11-08T11:56:37.872Z,10.75
2017-11-08T11:57:35.120Z,10.71
2017-11-08T11:58:35.433Z,10.69
2017-11-08T11:59:34.847Z,10.71
2017-11-08T12:00:34.999Z,10.72
2017-11-08T12:01:35.221Z,10.67
2017-11-08T12:02:34.623Z,10.69
2017-11-08T12:03:34.508Z,10.60
2017-11-08T12:04:36.098Z,10.59
2017-11-08T12:05:35.185Z,10.59
2017-11-08T12:06:34.476Z,10.54
2017-11-08T12:07:34.215Z,10.59
2017-11-08T12:08:34.209Z,10.53
2017-11-08T12:09:34.194Z,10.51
2017-11-08T12:10:33.999Z,10.57
2017-11-08T12:11:34.199Z,10.53
2017-11-08T12:12:34.322Z,10.51
2017-11-08T12:13:33.777Z,10.56
2017-11-08T12:14:34.404Z,10.53
2017-11-08T12:15:36.393Z,10.56
2017-11-08T12:16:34.307Z,10.53
2017-11-08T12:17:33.643Z,10.60
2017-11-08T12:18:34.903Z,10.54
2017-11-08T12:19:33.259Z,10.60
2017-11-08T12:20:33.178Z,10.60
2017-11-08T12:21:33.193Z,10.59
2017-11-08T12:22:40.808Z,10.60
2017-11-08T12:23:33.758Z,10.57
2017-11-08T12:24:33.684Z,10.57
2017-11-08T12:25:35.844Z,10.57
2017-11-08T12:26:36.938Z,10.53
2017-11-08T12:27:33.902Z,10.51
2017-11-08T12:28:33.317Z,10.54
2017-11-08T12:29:35.496Z,10.49
2017-11-08T12:30:32.460Z,10.54
2017-11-08T12:31:32.804Z,10.53
2017-11-08T12:32:32.316Z,10.42
2017-11-08T12:33:32.172Z,10.44
2017-11-08T12:34:36.096Z,10.41
2017-11-08T12:35:33.038Z,10.53
2017-11-08T12:36:34.437Z,10.42
2017-11-08T12:37:33.622Z,10.46
2017-11-08T12:38:31.821Z,10.42
2017-11-08T12:39:31.692Z,10.40
2017-11-08T12:40:34.138Z,10.40
2017-11-08T12:41:31.618Z,10.48
2017-11-08T12:42:31.501Z,10.41
2017-11-08T12:43:31.421Z,10.46
2017-11-08T12:44:31.295Z,10.42
2017-11-08T12:45:32.871Z,10.42
2017-11-08T12:46:34.082Z,10.48
2017-11-08T12:47:31.148Z,10.42
2017-11-08T12:48:31.007Z,10.34
2017-11-08T12:49:30.952Z,10.35
2017-11-08T12:50:31.077Z,10.38
2017-11-08T12:51:30.749Z,10.31
2017-11-08T12:52:30.674Z,10.41
2017-11-08T12:53:30.585Z,10.44
2017-11-08T12:54:30.508Z,10.38
2017-11-08T12:55:30.457Z,10.44
2017-11-08T12:56:30.387Z,10.35
2017-11-08T12:57:30.349Z,10.40
2017-11-08T12:58:30.235Z,10.37
2017-11-08T12:59:30.111Z,10.38
2017-11-08T13:00:30.110Z,10.37
2017-11-08T13:01:29.989Z,10.30
2017-11-08T13:02:30.557Z,10.35
2017-11-08T13:03:30.151Z,10.33
2017-11-08T13:04:32.377Z,10.34
2017-11-08T13:05:29.795Z,10.33
2017-11-08T13:06:29.580Z,10.34
2017-11-08T13:07:29.654Z,10.30
2017-11-08T13:08:29.402Z,10.28
2017-11-08T13:09:29.427Z,10.34
2017-11-08T13:10:29.277Z,10.26
2017-11-08T13:11:29.166Z,10.30